Time;durP1;ratioP1;P1;durP2;ratioP2;P2;SDS_P1;SDS_P2;PMS_P1;PMS_P2;Temp;Humidity;BMP_temperature;BMP_pressure;BME280_temperature;BME280_humidity;BME280_pressure;Samples;Min_cycle;Max_cycle;Signal;HPM_P1;HPM_P2
2020/12/17 00:04:02;;;;;;;50.58;22.83;;;6.10;99.90;;;;;;10286338;28;20536;-72
2020/12/17 00:09:11;;;;;;;50.55;23.35;;;6.10;99.90;;;;;;10287300;28;20081;-72
2020/12/17 00:14:13;;;;;;;51.00;23.20;;;6.00;99.90;;;;;;10290425;28;20058;-72
2020/12/17 00:19:14;;;;;;;53.40;25.17;;;6.00;99.90;;;;;;10284018;28;20054;-72
2020/12/17 00:24:15;;;;;;;48.78;22.55;;;6.00;99.90;;;;;;10281055;28;20406;-72
2020/12/17 00:29:17;;;;;;;53.92;23.00;;;6.00;99.90;;;;;;10281648;28;20058;-72
2020/12/17 00:34:19;;;;;;;52.50;25.50;;;6.00;99.90;;;;;;10286560;28;20051;-72
2020/12/17 00:39:23;;;;;;;47.17;22.95;;;6.00;99.90;;;;;;10268061;28;20054;-72
2020/12/17 00:44:24;;;;;;;52.53;21.67;;;6.00;99.90;;;;;;10280341;28;20050;-73
2020/12/17 00:49:26;;;;;;;43.33;24.23;;;6.10;99.90;;;;;;10280608;28;20058;-72
2020/12/17 00:54:28;;;;;;;47.42;21.75;;;6.10;99.90;;;;;;10293689;28;20058;-71
2020/12/17 00:59:30;;;;;;;34.80;18.98;;;6.20;99.90;;;;;;10288002;28;20061;-71
2020/12/17 01:04:31;;;;;;;40.53;19.70;;;6.20;99.90;;;;;;10277217;28;20058;-71
2020/12/17 01:09:38;;;;;;;61.20;22.70;;;6.30;99.90;;;;;;10290951;28;20057;-71
2020/12/17 01:14:39;;;;;;;83.55;25.20;;;6.20;99.90;;;;;;10275573;28;20305;-71
2020/12/17 01:19:41;;;;;;;94.32;26.50;;;6.30;99.90;;;;;;10293031;28;20054;-71
2020/12/17 01:24:43;;;;;;;286.92;34.70;;;6.40;99.90;;;;;;10286023;28;20054;-71
2020/12/17 01:29:44;;;;;;;243.60;32.97;;;6.30;99.90;;;;;;10274765;28;20433;-71
2020/12/17 01:34:46;;;;;;;268.83;34.85;;;6.30;99.90;;;;;;10288409;28;20056;-71
2020/12/17 01:39:56;;;;;;;161.70;31.10;;;6.30;99.90;;;;;;10290173;28;20050;-72
2020/12/17 01:44:57;;;;;;;167.90;33.85;;;6.20;99.90;;;;;;10282724;28;20384;-72
2020/12/17 01:50:02;;;;;;;120.30;31.13;;;6.20;99.90;;;;;;10281969;28;20073;-71
2020/12/17 01:55:03;;;;;;;119.35;31.05;;;6.20;99.90;;;;;;10287611;28;20074;-71
2020/12/17 02:00:07;;;;;;;144.75;33.17;;;6.10;99.90;;;;;;10277550;28;20047;-71
2020/12/17 02:05:09;;;;;;;173.45;35.63;;;6.00;99.90;;;;;;10293048;28;20042;-71
2020/12/17 02:10:14;;;;;;;124.05;31.70;;;6.00;99.90;;;;;;10276695;28;20050;-71
2020/12/17 02:15:17;;;;;;;163.88;33.80;;;6.00;99.90;;;;;;10278571;28;20045;-71
2020/12/17 02:20:19;;;;;;;145.32;33.47;;;6.00;99.90;;;;;;10277372;28;20051;-71
2020/12/17 02:25:20;;;;;;;115.63;30.25;;;6.00;99.90;;;;;;10281932;28;20496;-71
2020/12/17 02:30:21;;;;;;;97.18;27.50;;;6.00;99.90;;;;;;10281660;28;20061;-71
2020/12/17 02:35:23;;;;;;;95.10;27.73;;;6.00;99.90;;;;;;10293536;28;20102;-71
2020/12/17 02:40:31;;;;;;;83.25;26.67;;;5.90;99.90;;;;;;10271664;28;20623;-72
2020/12/17 02:45:33;;;;;;;74.95;24.98;;;5.80;99.90;;;;;;10280376;28;20631;-71
2020/12/17 02:50:34;;;;;;;70.40;25.63;;;5.70;99.90;;;;;;10287343;28;20075;-72
2020/12/17 02:55:36;;;;;;;66.53;24.25;;;5.60;99.90;;;;;;10287325;28;20141;-72
2020/12/17 03:00:38;;;;;;;73.00;23.98;;;5.50;99.90;;;;;;10276117;28;20058;-72
2020/12/17 03:05:40;;;;;;;85.88;26.08;;;5.40;99.90;;;;;;10286850;28;20054;-73
2020/12/17 03:10:50;;;;;;;70.38;23.05;;;5.30;99.90;;;;;;10280318;28;20125;-72
2020/12/17 03:15:52;;;;;;;79.40;24.75;;;5.20;99.90;;;;;;10280594;28;20078;-72
2020/12/17 03:21:04;;;;;;;80.35;26.55;;;5.10;99.90;;;;;;10230032;28;20245;-72
2020/12/17 03:26:05;;;;;;;63.95;23.10;;;5.10;99.90;;;;;;10279642;28;20117;-72
2020/12/17 03:31:06;;;;;;;77.88;25.77;;;5.10;99.90;;;;;;10279299;28;20117;-72
2020/12/17 03:36:08;;;;;;;57.38;21.25;;;5.00;99.90;;;;;;10281873;28;20043;-72
2020/12/17 03:41:15;;;;;;;59.57;21.70;;;5.00;99.90;;;;;;10278672;28;20048;-72
2020/12/17 03:46:17;;;;;;;57.78;21.05;;;4.90;99.90;;;;;;10287283;28;20434;-72
2020/12/17 03:51:18;;;;;;;48.92;20.08;;;4.80;99.90;;;;;;10287016;28;20054;-72
2020/12/17 03:56:19;;;;;;;50.63;20.95;;;4.80;99.90;;;;;;10283413;28;20047;-72
2020/12/17 04:01:21;;;;;;;43.75;18.65;;;4.70;99.90;;;;;;10283478;28;20058;-72
2020/12/17 04:06:22;;;;;;;51.75;19.15;;;4.70;99.90;;;;;;10285724;28;20059;-72
2020/12/17 04:11:31;;;;;;;53.40;19.00;;;4.60;99.90;;;;;;10282491;28;20054;-72
2020/12/17 04:16:33;;;;;;;50.60;20.05;;;4.60;99.90;;;;;;10278414;28;20491;-72
2020/12/17 04:21:34;;;;;;;49.95;18.98;;;4.70;99.90;;;;;;10283414;28;20065;-72
2020/12/17 04:26:35;;;;;;;48.63;18.73;;;4.70;99.90;;;;;;10287148;28;20043;-72
2020/12/17 04:31:37;;;;;;;37.28;18.20;;;4.70;99.90;;;;;;10272680;28;20133;-72
2020/12/17 04:36:38;;;;;;;39.58;18.30;;;4.80;99.90;;;;;;10287355;28;20414;-72
2020/12/17 04:41:52;;;;;;;32.75;17.02;;;4.80;99.90;;;;;;10295530;28;20046;-72
2020/12/17 04:46:59;;;;;;;32.33;16.35;;;4.80;99.90;;;;;;10282757;28;20050;-72
2020/12/17 04:52:01;;;;;;;31.70;15.57;;;4.90;99.90;;;;;;10300294;28;20498;-72
2020/12/17 04:57:08;;;;;;;28.95;16.48;;;5.00;99.90;;;;;;10279886;28;20074;-72
2020/12/17 05:02:10;;;;;;;31.02;15.10;;;5.00;99.90;;;;;;10281185;28;20049;-72
2020/12/17 05:07:16;;;;;;;27.35;15.20;;;5.00;99.90;;;;;;10281266;28;20039;-72
2020/12/17 05:12:18;;;;;;;25.80;14.50;;;5.20;99.90;;;;;;10284127;28;20053;-72
2020/12/17 05:17:20;;;;;;;27.90;14.00;;;5.10;99.90;;;;;;10280218;28;20046;-72
2020/12/17 05:22:21;;;;;;;24.95;14.10;;;5.30;99.90;;;;;;10294608;28;20051;-72
2020/12/17 05:27:23;;;;;;;22.92;14.55;;;5.30;99.90;;;;;;10276683;28;20050;-72
2020/12/17 05:32:26;;;;;;;27.17;15.57;;;5.30;99.90;;;;;;10284283;28;20106;-72
2020/12/17 05:37:30;;;;;;;20.95;12.90;;;5.30;99.90;;;;;;10284679;28;20061;-72
2020/12/17 05:42:31;;;;;;;24.25;13.88;;;5.40;99.90;;;;;;10279588;28;20046;-72
2020/12/17 05:47:33;;;;;;;23.42;12.80;;;5.40;99.90;;;;;;10281792;28;20054;-72
2020/12/17 05:52:36;;;;;;;24.58;13.60;;;5.30;99.90;;;;;;10281198;28;20054;-72
2020/12/17 05:57:51;;;;;;;22.63;12.98;;;5.30;99.90;;;;;;10278677;28;20050;-72
2020/12/17 06:02:52;;;;;;;24.25;13.30;;;5.40;99.90;;;;;;10283800;28;20046;-72
2020/12/17 06:07:59;;;;;;;21.90;12.70;;;5.40;99.90;;;;;;10277480;28;20390;-72
2020/12/17 06:13:02;;;;;;;24.37;12.07;;;5.20;99.90;;;;;;10298811;28;20051;-72
2020/12/17 06:18:04;;;;;;;22.15;12.27;;;5.30;99.90;;;;;;10282304;28;20525;-72
2020/12/17 06:23:06;;;;;;;22.83;12.23;;;5.20;99.90;;;;;;10296846;28;20144;-73
2020/12/17 06:28:31;;;;;;;20.90;12.10;;;5.40;99.90;;;;;;10257866;28;20069;-73
2020/12/17 06:33:35;;;;;;;22.05;12.70;;;5.40;99.90;;;;;;10280914;28;20049;-73
2020/12/17 06:38:39;;;;;;;21.35;12.10;;;5.40;99.90;;;;;;10277950;28;20051;-73
2020/12/17 06:43:40;;;;;;;23.23;11.85;;;5.40;99.90;;;;;;10275808;28;20046;-73
2020/12/17 06:48:41;;;;;;;24.23;12.45;;;5.50;99.90;;;;;;10276676;28;20137;-73
2020/12/17 06:53:43;;;;;;;26.38;14.35;;;5.40;99.90;;;;;;10271762;28;20774;-72
2020/12/17 06:58:44;;;;;;;22.40;11.18;;;5.50;99.90;;;;;;10280720;28;20054;-73
2020/12/17 07:03:47;;;;;;;20.27;11.25;;;5.50;99.90;;;;;;10298091;28;20062;-71
2020/12/17 07:08:51;;;;;;;21.15;11.43;;;5.50;99.90;;;;;;10274188;28;20120;-71
2020/12/17 07:13:54;;;;;;;22.70;11.73;;;5.60;99.90;;;;;;10279923;28;20062;-71
2020/12/17 07:19:17;;;;;;;22.60;12.57;;;5.60;99.90;;;;;;10273288;28;20054;-71
2020/12/17 07:24:34;;;;;;;21.73;11.63;;;5.60;99.90;;;;;;10283541;28;20798;-71
2020/12/17 07:29:47;;;;;;;24.10;12.73;;;5.50;99.90;;;;;;10204961;28;20058;-71
2020/12/17 07:34:50;;;;;;;20.38;12.70;;;5.60;99.90;;;;;;10287651;28;20129;-65
2020/12/17 07:39:52;;;;;;;20.05;11.93;;;5.50;99.90;;;;;;10290879;28;20069;-66
2020/12/17 07:44:53;;;;;;;22.00;12.63;;;5.60;99.90;;;;;;10289271;28;20045;-66
2020/12/17 07:49:54;;;;;;;21.65;12.13;;;5.50;99.90;;;;;;10289715;28;20507;-66
2020/12/17 07:54:55;;;;;;;28.48;15.88;;;5.50;99.90;;;;;;10291371;28;20065;-65
2020/12/17 07:59:57;;;;;;;24.10;12.45;;;5.50;99.90;;;;;;10288091;28;20046;-65
2020/12/17 08:04:58;;;;;;;22.95;13.38;;;5.60;99.90;;;;;;10299945;28;20054;-64
2020/12/17 08:10:00;;;;;;;20.95;12.00;;;5.40;99.90;;;;;;10291388;28;20066;-63
2020/12/17 08:15:09;;;;;;;19.20;11.23;;;5.30;99.90;;;;;;10285707;28;20129;-64
2020/12/17 08:20:14;;;;;;;23.88;11.25;;;5.40;99.90;;;;;;10295088;28;20050;-64
2020/12/17 08:25:16;;;;;;;18.83;12.05;;;5.60;99.90;;;;;;10292760;28;20042;-64
2020/12/17 08:30:22;;;;;;;19.77;11.88;;;5.70;99.90;;;;;;10299086;28;20050;-64
2020/12/17 08:35:26;;;;;;;21.92;12.90;;;5.80;99.90;;;;;;10291642;28;20050;-65
2020/12/17 08:40:29;;;;;;;17.95;11.50;;;5.70;99.90;;;;;;10297786;28;20056;-63
2020/12/17 08:45:30;;;;;;;18.73;11.00;;;5.70;99.90;;;;;;10293622;28;20086;-64
2020/12/17 08:50:34;;;;;;;18.45;11.23;;;5.50;99.90;;;;;;10295993;28;20038;-63
2020/12/17 08:55:35;;;;;;;18.33;11.27;;;5.60;99.90;;;;;;10300310;28;20529;-64
2020/12/17 09:00:37;;;;;;;18.73;12.00;;;5.50;99.90;;;;;;10296356;28;20112;-65
2020/12/17 09:05:38;;;;;;;22.08;11.70;;;5.70;99.90;;;;;;10294942;28;20038;-64
2020/12/17 09:10:39;;;;;;;20.30;11.50;;;5.90;99.90;;;;;;10296162;28;20060;-64
2020/12/17 09:15:40;;;;;;;20.77;11.68;;;6.00;99.90;;;;;;10291354;28;20109;-64
2020/12/17 09:20:41;;;;;;;21.10;12.05;;;6.00;99.90;;;;;;10294220;28;20105;-64
2020/12/17 09:25:43;;;;;;;20.15;11.77;;;6.10;99.90;;;;;;10295705;28;20746;-64
2020/12/17 09:30:44;;;;;;;21.60;11.23;;;6.10;99.90;;;;;;10295036;28;20057;-63
2020/12/17 09:35:46;;;;;;;23.45;12.63;;;6.10;99.90;;;;;;10292354;28;20104;-64
2020/12/17 09:40:53;;;;;;;29.35;13.98;;;6.20;99.90;;;;;;10293062;28;20050;-64
2020/12/17 09:45:56;;;;;;;19.98;12.40;;;6.30;99.90;;;;;;10298037;28;20046;-64
2020/12/17 09:51:06;;;;;;;38.72;14.07;;;6.30;99.90;;;;;;10291280;28;20046;-64
2020/12/17 09:56:12;;;;;;;26.92;12.00;;;6.40;99.90;;;;;;10291658;28;20051;-65
2020/12/17 10:01:14;;;;;;;23.95;13.10;;;6.50;99.90;;;;;;10291631;28;20042;-65
2020/12/17 10:06:15;;;;;;;19.23;13.02;;;6.40;99.90;;;;;;10292905;28;20097;-65
2020/12/17 10:11:16;;;;;;;24.65;14.02;;;6.40;99.90;;;;;;10296880;28;20049;-65
2020/12/17 10:16:18;;;;;;;23.95;14.43;;;6.40;99.90;;;;;;10294426;28;20141;-64
2020/12/17 10:21:19;;;;;;;46.05;25.40;;;6.40;99.90;;;;;;10286239;28;20065;-64
2020/12/17 10:26:20;;;;;;;29.15;15.68;;;6.50;99.90;;;;;;10298580;28;20050;-65
2020/12/17 10:31:22;;;;;;;25.83;14.15;;;6.50;99.90;;;;;;10298474;28;20068;-65
2020/12/17 10:36:24;;;;;;;25.13;14.20;;;6.60;99.90;;;;;;10295639;28;20046;-69
2020/12/17 10:41:26;;;;;;;20.83;14.05;;;6.60;99.90;;;;;;10291021;28;20117;-68
2020/12/17 10:46:28;;;;;;;22.00;13.48;;;6.80;99.90;;;;;;10290056;28;20230;-69
2020/12/17 10:51:29;;;;;;;24.73;14.63;;;6.70;99.90;;;;;;10291995;28;20384;-69
2020/12/17 10:56:30;;;;;;;25.25;15.82;;;6.70;99.90;;;;;;10290733;28;20050;-65
2020/12/17 11:01:32;;;;;;;24.88;16.42;;;6.70;99.90;;;;;;10287385;28;20054;-65
2020/12/17 11:06:33;;;;;;;29.95;16.05;;;6.60;99.90;;;;;;10291808;28;20123;-65
2020/12/17 11:11:34;;;;;;;25.55;16.55;;;6.80;99.90;;;;;;10289348;28;20061;-66
2020/12/17 11:16:36;;;;;;;28.15;17.63;;;6.80;99.90;;;;;;10289317;28;20054;-64
2020/12/17 11:21:37;;;;;;;28.13;16.42;;;6.80;99.90;;;;;;10293032;28;20596;-64
2020/12/17 11:26:43;;;;;;;28.38;16.90;;;6.90;99.90;;;;;;10292481;28;20108;-64
2020/12/17 11:31:45;;;;;;;24.75;15.73;;;6.90;99.90;;;;;;10282132;28;20050;-64
2020/12/17 11:36:47;;;;;;;31.80;17.55;;;6.90;99.90;;;;;;10290094;28;20488;-64
2020/12/17 11:41:48;;;;;;;24.65;15.38;;;6.90;99.90;;;;;;10292630;28;20057;-66
2020/12/17 11:46:52;;;;;;;22.75;14.85;;;6.90;99.90;;;;;;10287525;28;20051;-65
2020/12/17 11:51:54;;;;;;;22.52;15.43;;;7.10;99.90;;;;;;10290710;28;20039;-64
2020/12/17 11:56:55;;;;;;;21.98;14.45;;;7.20;99.90;;;;;;10301315;28;20053;-64
2020/12/17 12:01:57;;;;;;;30.13;17.92;;;7.20;99.90;;;;;;10295168;28;20061;-65
2020/12/17 12:06:58;;;;;;;23.88;14.73;;;7.30;99.90;;;;;;10297059;28;20062;-64
2020/12/17 12:11:59;;;;;;;24.95;15.93;;;7.30;99.90;;;;;;10293519;28;20080;-64
2020/12/17 12:17:01;;;;;;;25.20;17.50;;;7.40;99.90;;;;;;10295057;28;20412;-64
2020/12/17 12:22:02;;;;;;;32.33;19.88;;;7.20;99.90;;;;;;10293065;28;20058;-63
2020/12/17 12:27:04;;;;;;;26.75;18.27;;;7.20;99.90;;;;;;10298559;28;20723;-64
2020/12/17 12:32:05;;;;;;;30.42;17.77;;;7.50;99.90;;;;;;10296064;28;20638;-64
2020/12/17 12:37:07;;;;;;;25.83;17.25;;;7.40;99.90;;;;;;10298236;28;20117;-64
2020/12/17 12:42:08;;;;;;;29.35;17.60;;;7.30;99.90;;;;;;10299154;28;20832;-64
2020/12/17 12:47:09;;;;;;;29.38;18.35;;;7.40;99.90;;;;;;10295678;28;20141;-64
2020/12/17 12:52:11;;;;;;;33.90;18.65;;;7.30;99.90;;;;;;10296385;28;20481;-65
2020/12/17 12:57:12;;;;;;;29.25;19.10;;;7.40;99.90;;;;;;10293507;28;20085;-65
2020/12/17 13:02:14;;;;;;;33.65;19.73;;;7.40;99.90;;;;;;10292739;28;20050;-64
2020/12/17 13:07:15;;;;;;;27.83;19.55;;;7.40;99.90;;;;;;10300266;28;20053;-65
2020/12/17 13:12:16;;;;;;;32.30;19.27;;;7.30;99.90;;;;;;10288063;28;20133;-65
2020/12/17 13:17:17;;;;;;;35.25;20.73;;;7.30;99.90;;;;;;10291846;28;20830;-66
2020/12/17 13:22:18;;;;;;;29.83;20.38;;;7.20;99.90;;;;;;10296344;28;20054;-64
2020/12/17 13:27:21;;;;;;;36.30;20.95;;;7.30;99.90;;;;;;10292940;28;20061;-64
2020/12/17 13:32:22;;;;;;;34.83;21.25;;;7.40;99.90;;;;;;10287641;28;20054;-64
2020/12/17 13:37:23;;;;;;;33.17;21.25;;;7.30;99.90;;;;;;10297986;28;20108;-64
2020/12/17 13:42:25;;;;;;;33.42;19.83;;;7.40;99.90;;;;;;10297558;28;20488;-66
2020/12/17 13:47:27;;;;;;;29.73;19.80;;;7.30;99.90;;;;;;10292364;28;20038;-65
2020/12/17 13:52:28;;;;;;;33.65;19.20;;;7.30;99.90;;;;;;10291876;28;20429;-64
2020/12/17 13:57:30;;;;;;;35.78;21.58;;;7.20;99.90;;;;;;10291806;28;20054;-65
2020/12/17 14:02:33;;;;;;;37.85;25.13;;;7.20;99.90;;;;;;10293840;28;20141;-64
2020/12/17 14:07:35;;;;;;;47.70;27.42;;;7.10;99.90;;;;;;10296650;28;20054;-64
2020/12/17 14:12:37;;;;;;;36.90;22.88;;;7.10;99.90;;;;;;10291362;28;20422;-64
2020/12/17 14:17:39;;;;;;;37.03;22.13;;;7.00;99.90;;;;;;10295056;28;20054;-65
2020/12/17 14:22:40;;;;;;;35.58;21.17;;;7.00;99.90;;;;;;10296399;28;20050;-66
2020/12/17 14:27:41;;;;;;;36.13;21.85;;;6.90;99.90;;;;;;10292227;28;20136;-66
2020/12/17 14:32:43;;;;;;;37.17;21.13;;;6.80;99.90;;;;;;10293777;28;20050;-66
2020/12/17 14:37:44;;;;;;;47.00;23.55;;;6.70;99.90;;;;;;10296205;28;20412;-66
2020/12/17 14:42:46;;;;;;;49.65;23.40;;;6.70;99.90;;;;;;10293141;28;20063;-66
2020/12/17 14:47:56;;;;;;;39.05;22.02;;;6.60;99.90;;;;;;10306888;28;20141;-64
2020/12/17 14:52:57;;;;;;;43.88;22.60;;;6.50;99.90;;;;;;10291208;28;20048;-65
2020/12/17 14:57:58;;;;;;;44.00;22.15;;;6.40;99.90;;;;;;10291171;28;20050;-65
2020/12/17 15:03:01;;;;;;;43.83;22.17;;;6.30;99.90;;;;;;10292949;28;20102;-65
2020/12/17 15:08:03;;;;;;;51.72;25.40;;;6.20;99.90;;;;;;10294778;28;20069;-64
2020/12/17 15:13:04;;;;;;;48.70;24.10;;;6.10;99.90;;;;;;10296894;28;20042;-64
2020/12/17 15:18:11;;;;;;;;;;;6.10;99.90;;;;;;10296246;28;20046;-65
2020/12/17 15:23:13;;;;;;;54.67;26.40;;;6.00;99.90;;;;;;10290215;28;19922;-64
2020/12/17 15:28:14;;;;;;;53.08;26.30;;;5.90;99.90;;;;;;10299467;28;20132;-64
2020/12/17 15:33:15;;;;;;;51.13;25.13;;;5.90;99.90;;;;;;10301058;28;20062;-64
2020/12/17 15:38:17;;;;;;;58.22;26.67;;;5.90;99.90;;;;;;10300636;28;20543;-64
2020/12/17 15:43:19;;;;;;;56.42;25.30;;;6.00;99.90;;;;;;10298227;28;20086;-72
2020/12/17 15:48:37;;;;;;;53.38;24.95;;;5.90;99.90;;;;;;10300309;28;20053;-72
2020/12/17 15:53:39;;;;;;;44.10;23.58;;;5.90;99.90;;;;;;10299622;28;20172;-71
2020/12/17 15:58:42;;;;;;;41.92;22.40;;;6.00;99.90;;;;;;10300602;28;20129;-70
2020/12/17 16:03:43;;;;;;;44.15;22.75;;;6.00;99.90;;;;;;10299738;28;20058;-71
2020/12/17 16:08:46;;;;;;;42.95;23.30;;;6.00;99.90;;;;;;10298412;28;20572;-72
2020/12/17 16:13:47;;;;;;;45.90;23.52;;;6.10;99.90;;;;;;10294727;28;20092;-74
2020/12/17 16:18:52;;;;;;;43.47;23.30;;;6.10;99.90;;;;;;10292199;28;20272;-73
2020/12/17 16:23:54;;;;;;;42.42;23.23;;;6.10;99.90;;;;;;10291973;28;20054;-73
2020/12/17 16:28:55;;;;;;;42.75;23.15;;;6.20;99.90;;;;;;10293031;28;20054;-73
2020/12/17 16:33:56;;;;;;;38.35;22.80;;;6.20;99.90;;;;;;10298706;28;20065;-73
2020/12/17 16:38:59;;;;;;;43.28;21.05;;;6.30;99.90;;;;;;10296053;28;20057;-71
2020/12/17 16:44:01;;;;;;;35.10;20.25;;;6.40;99.90;;;;;;10298926;28;20046;-70
2020/12/17 16:49:07;;;;;;;37.83;20.57;;;6.70;99.90;;;;;;10295751;28;20034;-70
2020/12/17 16:54:08;;;;;;;36.40;21.20;;;6.80;99.90;;;;;;10296704;28;20468;-71
2020/12/17 16:59:09;;;;;;;39.47;21.63;;;6.80;99.90;;;;;;10297995;28;20046;-71
2020/12/17 17:04:13;;;;;;;42.65;21.38;;;6.70;99.90;;;;;;10296494;28;20074;-72
2020/12/17 17:09:14;;;;;;;43.60;22.65;;;6.60;99.90;;;;;;10296307;28;20053;-69
2020/12/17 17:14:16;;;;;;;43.45;23.60;;;6.40;99.90;;;;;;10292162;28;20050;-71
2020/12/17 17:19:25;;;;;;;45.95;22.27;;;6.10;99.90;;;;;;10290228;28;20038;-71
2020/12/17 17:24:26;;;;;;;49.97;24.10;;;5.90;99.90;;;;;;10291175;28;20049;-73
2020/12/17 17:29:28;;;;;;;52.33;25.67;;;5.80;99.90;;;;;;10295905;28;20042;-72
2020/12/17 17:34:30;;;;;;;56.25;24.02;;;5.70;99.90;;;;;;10280912;28;20046;-72
2020/12/17 17:39:31;;;;;;;52.42;25.40;;;5.60;99.90;;;;;;10297038;28;20054;-72
2020/12/17 17:44:32;;;;;;;47.85;23.77;;;5.40;99.90;;;;;;10299381;28;21097;-72
2020/12/17 17:49:40;;;;;;;52.17;22.15;;;5.30;99.90;;;;;;10296848;28;20070;-73
2020/12/17 17:54:43;;;;;;;52.42;24.23;;;5.10;99.90;;;;;;10300767;28;20061;-73
2020/12/17 17:59:45;;;;;;;57.10;31.50;;;5.00;99.90;;;;;;10297513;28;20035;-72
2020/12/17 18:04:46;;;;;;;74.32;38.17;;;6.30;99.90;;;;;;10294828;28;20153;-72
2020/12/17 18:09:47;;;;;;;68.20;32.00;;;4.80;99.90;;;;;;10295071;28;20908;-74
2020/12/17 18:14:49;;;;;;;67.40;29.92;;;4.60;99.90;;;;;;10311776;28;20053;-73
2020/12/17 18:19:56;;;;;;;47.55;23.23;;;4.60;99.90;;;;;;10311161;28;20050;-72
2020/12/17 18:24:58;;;;;;;49.92;23.95;;;4.40;99.90;;;;;;10288711;28;20046;-75
2020/12/17 18:30:01;;;;;;;84.72;45.28;;;4.20;99.90;;;;;;10294046;28;20055;-73
2020/12/17 18:35:04;;;;;;;83.28;35.65;;;4.20;99.90;;;;;;10295518;28;20046;-73
2020/12/17 18:40:06;;;;;;;78.72;35.42;;;4.20;99.90;;;;;;10291042;28;20129;-73
2020/12/17 18:45:07;;;;;;;79.80;35.13;;;4.10;99.90;;;;;;10295470;28;20046;-73
2020/12/17 18:50:14;;;;;;;81.22;35.72;;;5.60;99.90;;;;;;10278058;28;20133;-74
2020/12/17 18:55:16;;;;;;;78.82;33.28;;;4.20;99.90;;;;;;10290297;28;20520;-73
2020/12/17 19:00:18;;;;;;;62.80;28.90;;;4.10;99.90;;;;;;10326111;28;20420;-74
2020/12/17 19:05:20;;;;;;;61.08;27.38;;;4.00;99.90;;;;;;10288528;28;20158;-73
2020/12/17 19:10:25;;;;;;;61.95;27.95;;;3.80;99.90;;;;;;10321689;28;20065;-73
2020/12/17 19:15:26;;;;;;;85.35;32.35;;;3.70;99.90;;;;;;10299082;28;20054;-74
2020/12/17 19:20:32;;;;;;;72.72;30.27;;;3.60;99.90;;;;;;10290686;28;20085;-74
2020/12/17 19:25:34;;;;;;;84.50;34.33;;;3.70;99.90;;;;;;10290402;28;20054;-76
2020/12/17 19:30:36;;;;;;;70.90;33.05;;;3.80;99.90;;;;;;10294674;28;20057;-75
2020/12/17 19:35:38;;;;;;;70.45;32.20;;;3.80;99.90;;;;;;10286280;28;20065;-72
2020/12/17 19:40:39;;;;;;;66.63;28.63;;;3.70;99.90;;;;;;10288741;28;20046;-73
2020/12/17 19:45:41;;;;;;;56.85;25.15;;;3.70;99.90;;;;;;10293770;28;20061;-73
2020/12/17 19:50:46;;;;;;;57.50;26.65;;;3.50;99.90;;;;;;10292030;28;20065;-71
2020/12/17 19:55:50;;;;;;;55.50;26.52;;;3.30;99.90;;;;;;10286978;28;20076;-72
2020/12/17 20:00:52;;;;;;;64.28;28.67;;;3.30;99.90;;;;;;10304538;28;20058;-73
2020/12/17 20:05:56;;;;;;;118.13;40.15;;;3.30;99.90;;;;;;10291647;28;20054;-71
2020/12/17 20:10:58;;;;;;;222.68;51.45;;;3.30;99.90;;;;;;10274386;28;20050;-73
2020/12/17 20:15:59;;;;;;;137.68;43.30;;;3.40;99.90;;;;;;10299534;28;20057;-70
2020/12/17 20:21:02;;;;;;;278.92;57.50;;;3.40;99.90;;;;;;10303595;28;20104;-71
2020/12/17 20:26:04;;;;;;;144.80;46.20;;;3.30;99.90;;;;;;10287898;28;20055;-73
2020/12/17 20:31:09;;;;;;;124.35;42.65;;;3.30;99.90;;;;;;10296035;28;20062;-73
2020/12/17 20:36:24;;;;;;;113.53;40.15;;;3.20;99.90;;;;;;10300130;28;20046;-74
2020/12/17 20:41:31;;;;;;;110.32;37.10;;;3.20;99.90;;;;;;10295802;28;20588;-73
2020/12/17 20:46:33;;;;;;;89.75;32.58;;;3.00;99.90;;;;;;10298176;28;20587;-72
2020/12/17 20:51:35;;;;;;;144.32;37.33;;;2.80;99.90;;;;;;10302362;28;20061;-72
2020/12/17 20:56:36;;;;;;;228.98;39.75;;;2.80;99.90;;;;;;10285523;28;20050;-72
2020/12/17 21:01:38;;;;;;;219.05;45.78;;;2.70;99.90;;;;;;10296880;28;20060;-72
2020/12/17 21:06:39;;;;;;;183.23;41.22;;;2.60;99.90;;;;;;10298170;28;20069;-72
2020/12/17 21:11:41;;;;;;;184.77;39.30;;;2.50;99.90;;;;;;10298417;28;20573;-73
2020/12/17 21:16:42;;;;;;;131.32;37.22;;;2.50;99.90;;;;;;10295603;28;20046;-74
2020/12/17 21:21:44;;;;;;;90.50;33.20;;;2.40;99.90;;;;;;10295988;28;20038;-72
2020/12/17 21:26:45;;;;;;;100.47;38.85;;;2.30;99.90;;;;;;10279672;28;20734;-72
2020/12/17 21:31:52;;;;;;;82.80;32.83;;;2.30;99.90;;;;;;10295764;28;20058;-71
2020/12/17 21:36:55;;;;;;;84.43;35.10;;;2.30;99.90;;;;;;10298302;28;20057;-72
2020/12/17 21:41:56;;;;;;;78.07;33.03;;;2.20;99.90;;;;;;10295301;28;20054;-75
2020/12/17 21:46:58;;;;;;;90.72;33.05;;;2.20;99.90;;;;;;10298347;28;20057;-72
2020/12/17 21:51:59;;;;;;;104.97;36.75;;;2.10;99.90;;;;;;10294281;28;20050;-72
2020/12/17 21:57:01;;;;;;;153.57;40.30;;;2.10;99.90;;;;;;10295535;28;20053;-72
2020/12/17 22:02:03;;;;;;;162.85;39.92;;;2.00;99.90;;;;;;10277698;28;20046;-70
2020/12/17 22:07:05;;;;;;;115.35;40.40;;;2.00;99.90;;;;;;10298987;28;20053;-70
2020/12/17 22:12:06;;;;;;;92.57;36.08;;;1.90;99.90;;;;;;10296156;28;20241;-70
2020/12/17 22:17:07;;;;;;;90.38;34.40;;;1.90;99.90;;;;;;10296845;28;20051;-74
2020/12/17 22:22:15;;;;;;;68.45;32.30;;;1.90;99.90;;;;;;10294042;28;20077;-71
2020/12/17 22:27:17;;;;;;;82.88;35.95;;;1.90;99.90;;;;;;10297325;28;20568;-71
2020/12/17 22:32:18;;;;;;;77.57;31.40;;;1.90;99.90;;;;;;10293186;28;20061;-71
2020/12/17 22:37:19;;;;;;;69.28;29.08;;;2.00;99.90;;;;;;10295540;28;20087;-72
2020/12/17 22:42:21;;;;;;;80.03;29.42;;;2.10;99.90;;;;;;10285625;28;20050;-72
2020/12/17 22:47:22;;;;;;;63.72;26.65;;;2.00;99.90;;;;;;10259833;28;20050;-72
2020/12/17 22:52:32;;;;;;;66.55;26.35;;;2.00;99.90;;;;;;10288928;28;20074;-71
2020/12/17 22:57:34;;;;;;;62.17;24.23;;;2.00;99.90;;;;;;10293560;28;20050;-71
2020/12/17 23:02:36;;;;;;;69.20;26.85;;;2.00;99.90;;;;;;10287253;28;20460;-72
2020/12/17 23:07:37;;;;;;;58.42;24.73;;;2.00;99.90;;;;;;10274060;28;20077;-73
2020/12/17 23:12:38;;;;;;;54.30;23.63;;;1.90;99.90;;;;;;10281597;28;20058;-73
2020/12/17 23:17:39;;;;;;;52.25;23.90;;;1.80;99.90;;;;;;10289619;28;20397;-72
2020/12/17 23:22:48;;;;;;;52.65;22.65;;;1.70;99.90;;;;;;10296465;28;20129;-71
2020/12/17 23:27:50;;;;;;;56.40;25.30;;;1.70;99.90;;;;;;10282623;28;20429;-72
2020/12/17 23:32:51;;;;;;;56.28;26.02;;;1.60;99.90;;;;;;10283644;28;20058;-71
2020/12/17 23:37:52;;;;;;;69.03;28.10;;;1.70;99.90;;;;;;10284932;28;20058;-72
2020/12/17 23:42:54;;;;;;;69.10;28.92;;;1.90;99.90;;;;;;10289074;28;20734;-72
2020/12/17 23:47:55;;;;;;;64.00;26.75;;;2.00;99.90;;;;;;10297978;28;20050;-71
2020/12/17 23:53:05;;;;;;;67.75;26.98;;;2.10;99.90;;;;;;10296361;28;20104;-71
2020/12/17 23:58:06;;;;;;;53.45;24.42;;;2.20;99.90;;;;;;10301720;28;20066;-71
